Time;durP1;ratioP1;P1;durP2;ratioP2;P2;SDS_P1;SDS_P2;PMS_P1;PMS_P2;Temp;Humidity;BMP_temperature;BMP_pressure;BME280_temperature;BME280_humidity;BME280_pressure;Samples;Min_cycle;Max_cycle;Signal;HPM_P1;HPM_P2
2022/01/04 07:24:02;;;;;;;46.10;28.97;;;;;;;5.61;89.07;97527.69;2237440;79;22793;-84
2022/01/04 07:27:05;;;;;;;47.63;24.83;;;;;;;5.59;89.01;97529.39;2189368;81;20991;-83
2022/01/04 07:30:05;;;;;;;44.80;23.30;;;;;;;5.63;89.00;97524.69;2188967;81;21427;-80
2022/01/04 07:33:08;;;;;;;46.13;25.10;;;;;;;5.69;88.94;97519.56;2170479;81;20940;-83
2022/01/04 07:36:08;;;;;;;42.53;23.87;;;;;;;5.79;88.83;97523.54;2189682;81;21030;-82
2022/01/04 07:42:11;;;;;;;29.30;20.37;;;;;;;5.94;88.58;97522.42;2170730;81;21008;-80
2022/01/04 07:45:12;;;;;;;37.33;19.07;;;;;;;6.00;88.40;97518.16;2190358;81;20940;-80
2022/01/04 07:48:16;;;;;;;24.80;16.13;;;;;;;6.08;88.23;97508.32;2190537;81;20968;-80
2022/01/04 07:51:17;;;;;;;25.02;16.50;;;;;;;6.13;88.09;97503.62;2190333;81;20971;-80
2022/01/04 07:54:17;;;;;;;25.10;17.03;;;;;;;6.20;87.94;97498.05;2190085;81;20964;-82
2022/01/04 07:57:18;;;;;;;24.17;16.70;;;;;;;6.24;87.74;97495.50;2190619;81;20943;-82
2022/01/04 08:00:20;;;;;;;22.23;15.90;;;;;;;6.27;87.70;97485.16;2190709;81;20992;-82
2022/01/04 08:03:21;;;;;;;27.57;15.93;;;;;;;6.36;87.64;97489.10;2190457;81;21398;-81
2022/01/04 08:06:21;;;;;;;25.17;14.83;;;;;;;6.43;87.46;97486.13;2189578;81;20964;-81
2022/01/04 08:09:22;;;;;;;28.63;15.63;;;;;;;6.48;87.22;97474.48;2189671;81;21109;-81
2022/01/04 08:12:22;;;;;;;21.87;15.43;;;;;;;6.53;87.13;97471.49;2189343;81;20991;-81
2022/01/04 08:15:23;;;;;;;25.47;15.20;;;;;;;6.56;86.92;97473.67;2189238;81;20971;-81
2022/01/04 08:18:23;;;;;;;30.43;16.47;;;;;;;6.60;86.73;97461.59;2188994;81;20975;-79
2022/01/04 08:21:24;;;;;;;26.87;15.27;;;;;;;6.62;86.65;97460.74;2188298;80;20960;-81
2022/01/04 08:24:25;;;;;;;23.13;14.90;;;;;;;6.67;86.60;97455.15;2189366;81;20963;-81
2022/01/04 08:27:26;;;;;;;27.20;14.90;;;;;;;6.71;86.56;97450.84;2189704;81;21328;-80
2022/01/04 08:30:27;;;;;;;25.23;14.63;;;;;;;6.77;86.44;97440.50;2189598;81;20960;-80
2022/01/04 08:33:27;;;;;;;21.27;14.53;;;;;;;6.81;86.42;97429.28;2189221;81;21351;-81
2022/01/04 08:36:28;;;;;;;21.80;14.10;;;;;;;6.86;86.39;97424.11;2188698;81;20968;-80
2022/01/04 08:39:29;;;;;;;25.73;15.50;;;;;;;6.93;86.25;97419.38;2187941;81;21004;-81
2022/01/04 08:42:29;;;;;;;22.40;14.57;;;;;;;6.97;86.34;97412.94;2188353;81;21003;-80
2022/01/04 08:45:30;;;;;;;21.53;14.37;;;;;;;7.09;86.25;97403.45;2188548;81;20940;-81
2022/01/04 08:48:30;;;;;;;22.47;15.83;;;;;;;7.18;86.03;97391.80;2189590;81;21003;-81
2022/01/04 08:51:31;;;;;;;24.40;14.70;;;;;;;7.24;85.75;97387.48;2189092;81;21019;-81
2022/01/04 08:54:32;;;;;;;28.13;16.77;;;;;;;7.31;85.72;97381.88;2189505;81;20984;-81
2022/01/04 08:57:32;;;;;;;28.40;17.73;;;;;;;7.38;85.66;97377.13;2189020;81;21019;-81
2022/01/04 09:00:36;;;;;;;40.93;21.53;;;;;;;7.47;85.28;97361.55;2188230;81;20990;-80
2022/01/04 09:03:37;;;;;;;39.67;19.77;;;;;;;7.47;85.28;97361.55;2188235;81;21049;-79
2022/01/04 09:06:37;;;;;;;31.83;17.53;;;;;;;7.55;85.34;97355.93;2187549;81;20988;-80
2022/01/04 09:09:38;;;;;;;29.30;16.83;;;;;;;7.62;85.21;97349.88;2188475;81;20917;-81
2022/01/04 09:12:49;;;;;;;38.70;21.37;;;;;;;7.70;85.15;97346.41;2188441;81;20972;-81
2022/01/04 09:18:43;;;;;;;41.97;22.20;;;;;;;7.79;84.81;97329.51;2172255;81;21113;-79
2022/01/04 09:21:45;;;;;;;42.87;23.13;;;;;;;7.86;84.56;97324.33;2189103;81;20960;-81
2022/01/04 09:24:45;;;;;;;30.83;19.43;;;;;;;7.98;84.52;97315.22;2187722;81;21040;-80
2022/01/04 09:27:46;;;;;;;39.93;17.80;;;;;;;7.98;84.52;97315.22;2188008;81;20928;-81
2022/01/04 09:30:47;;;;;;;24.60;14.57;;;;;;;8.00;83.80;97307.42;2188071;81;21007;-82
2022/01/04 09:33:47;;;;;;;21.10;11.70;;;;;;;8.04;83.63;97306.54;2189039;81;20948;-81
2022/01/04 09:36:48;;;;;;;19.40;13.40;;;;;;;8.06;83.59;97302.20;2189233;81;20986;-82
2022/01/04 09:39:48;;;;;;;21.60;13.77;;;;;;;8.15;83.62;97293.08;2189512;81;21745;-82
2022/01/04 09:42:49;;;;;;;21.83;10.57;;;;;;;8.26;83.43;97294.34;2188207;81;20951;-80
2022/01/04 09:45:50;;;;;;;16.50;10.57;;;;;;;8.33;82.53;97285.68;2188962;81;21000;-81
2022/01/04 09:48:50;;;;;;;15.60;10.30;;;;;;;8.41;82.91;97281.31;2189542;81;21368;-81
2022/01/04 09:51:51;;;;;;;16.00;8.87;;;;;;;8.49;82.42;97272.17;2189353;81;21444;-81
2022/01/04 09:54:51;;;;;;;14.97;8.20;;;;;;;8.52;82.09;97273.02;2189856;81;20967;-81
2022/01/04 09:57:52;;;;;;;13.70;7.23;;;;;;;8.54;81.98;97264.77;2189322;81;20999;-80
2022/01/04 10:00:52;;;;;;;17.90;10.83;;;;;;;8.55;81.32;97270.41;2190041;81;21348;-81
2022/01/04 10:06:55;;;;;;;17.67;12.07;;;;;;;8.57;81.38;97262.16;2171137;81;20987;-81
2022/01/04 10:09:56;;;;;;;13.83;9.40;;;;;;;8.61;81.52;97260.40;2189074;81;20987;-81
2022/01/04 10:12:57;;;;;;;22.20;13.47;;;;;;;8.63;81.47;97263.86;2188409;81;20964;-80
2022/01/04 10:15:59;;;;;;;10.83;7.20;;;;;;;8.69;81.38;97257.35;2189532;81;21380;-80
2022/01/04 10:18:59;;;;;;;7.50;5.40;;;;;;;8.73;80.49;97264.70;2188990;81;21059;-82
2022/01/04 10:22:00;;;;;;;8.57;6.10;;;;;;;8.72;80.72;97262.97;2190008;81;21059;-81
2022/01/04 10:25:00;;;;;;;7.60;5.07;;;;;;;8.76;80.74;97254.28;2189819;81;21479;-81
2022/01/04 10:28:01;;;;;;;8.10;5.03;;;;;;;8.78;80.28;97249.48;2189142;81;21519;-82
2022/01/04 10:31:01;;;;;;;7.93;4.70;;;;;;;8.80;80.00;97229.97;2189416;81;20956;-82
2022/01/04 10:34:02;;;;;;;16.47;8.03;;;;;;;8.82;79.81;97234.28;2189819;81;21035;-82
2022/01/04 10:37:02;;;;;;;11.37;6.70;;;;;;;8.83;79.69;97229.50;2189044;81;20944;-79
2022/01/04 10:40:03;;;;;;;15.33;8.27;;;;;;;8.80;79.69;97226.92;2188213;81;20959;-80
2022/01/04 10:43:03;;;;;;;13.63;7.70;;;;;;;8.81;79.75;97225.19;2188148;81;20979;-80
2022/01/04 10:46:04;;;;;;;14.87;7.50;;;;;;;8.77;79.74;97213.94;2188781;81;21463;-81
2022/01/04 10:49:05;;;;;;;14.47;9.20;;;;;;;8.76;79.42;97210.05;2188230;81;20990;-81
2022/01/04 10:52:06;;;;;;;22.17;13.07;;;;;;;8.73;79.44;97192.73;2187898;81;21466;-81
2022/01/04 10:55:06;;;;;;;24.23;15.23;;;;;;;8.72;79.53;97200.10;2187728;81;21027;-82
2022/01/04 10:58:07;;;;;;;27.67;17.97;;;;;;;8.66;79.50;97187.55;2188397;81;21022;-81
2022/01/04 11:04:09;;;;;;;15.47;11.93;;;;;;;8.58;79.61;97178.49;2172161;81;20976;-81
2022/01/04 11:07:10;;;;;;;13.50;9.17;;;;;;;8.55;79.54;97174.17;2188720;81;21045;-81
2022/01/04 11:10:11;;;;;;;10.80;8.00;;;;;;;8.58;79.74;97160.29;2188649;81;21059;-81
2022/01/04 11:13:12;;;;;;;15.60;9.23;;;;;;;8.62;79.87;97148.55;2188659;81;21003;-81
2022/01/04 11:16:12;;;;;;;14.23;8.50;;;;;;;8.62;79.92;97130.78;2188427;81;21083;-80
2022/01/04 11:19:13;;;;;;;11.30;8.37;;;;;;;8.62;79.92;97130.78;2188368;81;20980;-81
2022/01/04 11:22:13;;;;;;;10.23;6.90;;;;;;;8.57;79.88;97130.82;2188678;81;21000;-81
2022/01/04 11:25:14;;;;;;;16.63;10.27;;;;;;;8.54;80.21;97116.97;2188517;81;20984;-80
2022/01/04 11:28:15;;;;;;;23.10;13.80;;;;;;;8.53;80.28;97112.65;2188494;81;20952;-80
2022/01/04 11:31:15;;;;;;;27.53;14.67;;;;;;;8.47;80.21;97106.20;2188754;81;21007;-80
2022/01/04 11:34:16;;;;;;;22.07;11.70;;;;;;;8.42;80.68;97098.87;2188086;81;20964;-80
2022/01/04 11:37:16;;;;;;;13.33;8.93;;;;;;;8.40;80.86;97087.17;2187134;81;20964;-82
2022/01/04 11:40:17;;;;;;;15.20;8.37;;;;;;;8.37;80.75;97079.41;2187730;81;21000;-80
2022/01/04 11:43:17;;;;;;;11.90;7.77;;;;;;;8.34;81.32;97073.36;2188589;81;20956;-80
2022/01/04 11:46:18;;;;;;;14.23;7.20;;;;;;;8.31;81.43;97061.22;2188383;81;20964;-82
2022/01/04 11:49:18;;;;;;;13.30;7.80;;;;;;;8.26;81.64;97052.16;2188138;81;20952;-80
2022/01/04 11:52:19;;;;;;;10.90;6.60;;;;;;;8.24;81.83;97043.95;2188381;81;20971;-81
2022/01/04 11:55:21;;;;;;;9.77;5.77;;;;;;;8.20;82.07;97043.11;2188692;81;20979;-81
2022/01/04 11:58:22;;;;;;;9.67;4.77;;;;;;;8.17;82.30;97034.47;2188308;81;21051;-79
2022/01/04 12:01:22;;;;;;;6.97;4.53;;;;;;;8.12;82.63;97031.05;2189149;81;21022;-79
2022/01/04 12:04:23;;;;;;;6.93;4.93;;;;;;;8.10;82.84;97028.89;2188958;81;21043;-80
2022/01/04 12:07:23;;;;;;;6.50;4.23;;;;;;;8.08;83.06;97017.21;2188261;81;21036;-79
2022/01/04 12:10:25;;;;;;;8.47;5.73;;;;;;;8.05;83.53;97008.58;2187574;81;20988;-81
2022/01/04 12:13:25;;;;;;;13.70;6.60;;;;;;;8.03;83.61;96997.33;2188574;81;21007;-81
2022/01/04 12:16:26;;;;;;;13.43;8.63;;;;;;;7.98;83.67;96998.66;2187896;81;21411;-80
2022/01/04 12:19:26;;;;;;;17.20;9.53;;;;;;;7.94;83.79;96988.73;2188595;81;20972;-80
2022/01/04 12:22:27;;;;;;;10.27;6.73;;;;;;;7.92;83.96;96989.18;2188224;81;20999;-80
2022/01/04 12:28:30;;;;;;;11.30;8.07;;;;;;;7.84;84.17;96985.78;2171124;81;20999;-81
2022/01/04 12:31:30;;;;;;;13.93;9.23;;;;;;;7.87;84.86;96984.89;2188306;81;21015;-80
2022/01/04 12:34:31;;;;;;;9.67;6.93;;;;;;;7.87;84.77;96968.87;2189374;81;21329;-80
2022/01/04 12:37:33;;;;;;;12.33;7.47;;;;;;;7.85;84.81;96959.36;2171548;81;21020;-80
2022/01/04 12:43:37;;;;;;;10.80;7.37;;;;;;;8.02;84.90;96944.50;2172550;81;21038;-82
2022/01/04 12:46:41;;;;;;;12.83;8.17;;;;;;;7.94;84.85;96946.30;2188408;81;21043;-80
2022/01/04 12:49:40;;;;;;;13.10;8.37;;;;;;;7.88;84.86;96937.26;2188615;81;21043;-81
2022/01/04 12:52:43;;;;;;;13.83;9.17;;;;;;;7.83;85.11;96940.33;2171601;81;21385;-80
2022/01/04 12:55:43;;;;;;;21.93;11.10;;;;;;;7.82;85.42;96932.11;2189332;81;20945;-81
2022/01/04 12:58:44;;;;;;;14.60;9.73;;;;;;;7.80;85.60;96933.83;2188996;81;20968;-83
2022/01/04 13:01:44;;;;;;;13.97;9.10;;;;;;;7.79;85.76;96925.61;2189175;81;20948;-79
2022/01/04 13:04:46;;;;;;;14.47;9.07;;;;;;;7.78;85.79;96923.89;2188927;81;21015;-82
2022/01/04 13:07:46;;;;;;;13.33;8.33;;;;;;;7.74;86.05;96908.77;2188224;81;20940;-81
2022/01/04 13:10:47;;;;;;;15.10;8.40;;;;;;;7.74;86.05;96908.77;2188421;81;20983;-80
2022/01/04 13:13:47;;;;;;;13.73;8.47;;;;;;;7.78;86.33;96904.41;2187437;81;21672;-80
2022/01/04 13:16:48;;;;;;;16.30;9.23;;;;;;;7.76;86.33;96895.77;2187412;81;20928;-80
2022/01/04 13:19:50;;;;;;;14.73;9.60;;;;;;;7.71;86.40;96890.61;2187819;81;21004;-80
2022/01/04 13:22:50;;;;;;;13.13;9.10;;;;;;;7.71;86.56;96876.33;2188007;80;21118;-80
2022/01/04 13:25:52;;;;;;;13.33;8.90;;;;;;;7.72;86.77;96873.30;2188314;81;21026;-80
2022/01/04 13:28:52;;;;;;;13.47;8.37;;;;;;;7.71;86.80;96862.05;2188547;81;21059;-80
2022/01/04 13:31:53;;;;;;;13.03;9.07;;;;;;;7.71;87.03;96848.20;2188652;81;20968;-79
2022/01/04 13:34:53;;;;;;;13.57;9.43;;;;;;;7.70;87.08;96847.77;2188029;81;21008;-80
2022/01/04 13:37:53;;;;;;;11.67;8.53;;;;;;;7.71;87.29;96844.30;2188170;81;20969;-80
2022/01/04 13:41:01;;;;;;;17.60;11.83;;;;;;;7.70;87.45;96840.84;2188466;81;20998;-79
2022/01/04 13:43:59;;;;;;;15.67;10.17;;;;;;;7.72;87.63;96829.14;2188394;81;21023;-81
2022/01/04 13:47:00;;;;;;;16.07;10.93;;;;;;;7.72;87.66;96825.25;2188505;81;20952;-80
2022/01/04 13:50:01;;;;;;;16.83;10.63;;;;;;;7.73;87.84;96820.48;2189044;81;20967;-80
2022/01/04 13:53:04;;;;;;;19.60;12.47;;;;;;;7.74;87.94;96821.77;2189554;81;21023;-80
2022/01/04 13:56:05;;;;;;;20.47;12.57;;;;;;;7.75;87.89;96821.33;2188417;81;20967;-80
2022/01/04 13:59:08;;;;;;;21.67;12.87;;;;;;;7.74;88.03;96812.67;2188946;81;20999;-80
2022/01/04 14:02:09;;;;;;;24.53;11.70;;;;;;;7.74;88.11;96806.62;2188385;81;21360;-81
2022/01/04 14:05:09;;;;;;;20.27;13.70;;;;;;;7.78;88.22;96796.62;2189232;81;20967;-80
2022/01/04 14:08:10;;;;;;;23.37;13.63;;;;;;;7.81;88.33;96788.84;2189891;81;20963;-79
2022/01/04 14:11:10;;;;;;;32.00;17.47;;;;;;;7.83;88.38;96785.34;2189287;81;20956;-80
2022/01/04 14:14:11;;;;;;;36.67;20.37;;;;;;;7.85;88.38;96781.00;2189714;81;20933;-81
2022/01/04 14:17:11;;;;;;;25.80;14.33;;;;;;;7.89;88.45;96768.84;2189135;81;21007;-81
2022/01/04 14:20:12;;;;;;;52.50;23.73;;;;;;;7.93;88.46;96761.43;2188530;81;20940;-81
2022/01/04 14:23:13;;;;;;;82.30;36.03;;;;;;;7.97;88.51;96761.81;2185945;80;21407;-82
2022/01/04 14:26:13;;;;;;;57.73;26.17;;;;;;;8.03;88.60;96758.29;2172848;81;20979;-82
2022/01/04 14:29:14;;;;;;;41.23;19.87;;;;;;;8.06;88.58;96751.76;2173048;82;21001;-81
2022/01/04 14:32:14;;;;;;;33.73;18.63;;;;;;;8.09;88.58;96755.63;2171792;81;20953;-82
2022/01/04 14:35:15;;;;;;;22.67;12.90;;;;;;;8.10;88.79;96750.84;2172362;82;20941;-81
2022/01/04 14:38:16;;;;;;;15.00;7.90;;;;;;;8.11;88.65;96746.93;2172741;81;20929;-81
2022/01/04 14:41:16;;;;;;;8.90;6.60;;;;;;;8.12;88.77;96742.16;2172449;82;20984;-81
2022/01/04 14:44:17;;;;;;;9.60;5.90;;;;;;;8.14;88.70;96744.30;2173009;82;20933;-81
2022/01/04 14:47:17;;;;;;;11.00;5.87;;;;;;;8.15;88.63;96743.42;2173193;82;20980;-82
2022/01/04 14:50:18;;;;;;;8.10;5.60;;;;;;;8.18;88.62;96735.58;2172975;82;20964;-82
2022/01/04 14:53:21;;;;;;;9.37;6.03;;;;;;;8.20;88.61;96735.56;2172701;81;21004;-82
2022/01/04 14:56:21;;;;;;;10.30;6.87;;;;;;;8.20;88.58;96733.83;2172405;82;21416;-81
2022/01/04 14:59:21;;;;;;;9.80;7.23;;;;;;;8.19;88.57;96733.84;2171729;81;20999;-81
2022/01/04 15:02:24;;;;;;;9.77;7.00;;;;;;;8.18;88.62;96726.92;2171778;82;20965;-81
2022/01/04 15:05:24;;;;;;;10.63;6.93;;;;;;;8.17;88.63;96728.66;2171729;81;20987;-82
2022/01/04 15:08:25;;;;;;;9.73;6.20;;;;;;;8.17;88.67;96727.80;2172817;82;20944;-81
2022/01/04 15:11:25;;;;;;;10.03;7.47;;;;;;;8.15;88.82;96730.42;2172670;82;20929;-82
2022/01/04 15:14:25;;;;;;;14.33;6.83;;;;;;;8.17;88.90;96724.77;2172175;82;20945;-79
2022/01/04 15:17:26;;;;;;;7.73;5.73;;;;;;;8.17;88.98;96718.27;2172687;81;20969;-83
2022/01/04 15:20:26;;;;;;;9.53;6.40;;;;;;;8.18;88.96;96714.80;2173308;81;20972;-81
2022/01/04 15:23:27;;;;;;;9.13;6.00;;;;;;;8.19;88.98;96704.81;2175267;80;21020;-79
2022/01/04 15:26:27;;;;;;;11.47;6.40;;;;;;;8.20;88.81;96703.94;2190111;81;20968;-81
2022/01/04 15:29:28;;;;;;;8.87;6.03;;;;;;;8.21;88.76;96695.70;2189879;81;21003;-82
2022/01/04 15:32:29;;;;;;;9.87;6.80;;;;;;;8.23;88.75;96686.14;2189436;81;20987;-81
2022/01/04 15:35:31;;;;;;;12.30;6.77;;;;;;;8.24;88.65;96686.13;2190251;81;20952;-80
2022/01/04 15:38:31;;;;;;;14.87;9.70;;;;;;;8.25;88.62;96681.34;2189701;81;20965;-81
2022/01/04 15:41:32;;;;;;;22.17;11.00;;;;;;;8.27;88.63;96680.88;2190098;81;20941;-82
2022/01/04 15:44:33;;;;;;;19.57;13.13;;;;;;;8.26;88.58;96679.16;2191566;81;20996;-82
2022/01/04 15:47:35;;;;;;;27.10;16.90;;;;;;;8.27;88.61;96674.39;2174471;81;20984;-82
2022/01/04 15:50:38;;;;;;;37.67;21.10;;;;;;;8.27;88.75;96659.23;2191457;81;20976;-81
2022/01/04 15:53:38;;;;;;;27.73;15.90;;;;;;;8.26;88.65;96659.67;2191294;81;21041;-81
2022/01/04 15:56:42;;;;;;;26.33;15.63;;;;;;;8.26;88.64;96658.81;2191773;81;21004;-81
2022/01/04 15:59:43;;;;;;;26.33;15.88;;;;;;;8.25;88.65;96654.50;2191378;81;21383;-81
2022/01/04 16:02:44;;;;;;;29.80;16.20;;;;;;;8.24;88.64;96657.53;2191209;81;21063;-82
2022/01/04 16:05:47;;;;;;;31.90;16.27;;;;;;;8.23;88.69;96655.81;2191550;81;20991;-80
2022/01/04 16:08:48;;;;;;;24.90;14.87;;;;;;;8.21;88.62;96661.47;2191432;81;21361;-81
2022/01/04 16:11:48;;;;;;;27.73;16.07;;;;;;;8.19;88.69;96656.73;2190588;81;20976;-80
2022/01/04 16:14:49;;;;;;;30.93;18.30;;;;;;;8.18;88.75;96659.36;2190195;81;20976;-81
2022/01/04 16:17:58;;;;;;;37.93;22.23;;;;;;;8.16;88.75;96650.72;2191190;81;21367;-82
2022/01/04 16:24:11;;;;;;;49.10;21.83;;;;;;;8.13;88.69;96641.67;2191157;80;21107;-82
2022/01/04 16:27:11;;;;;;;46.37;21.90;;;;;;;8.10;88.78;96636.08;2191209;81;20964;-80
2022/01/04 16:30:13;;;;;;;50.00;23.63;;;;;;;8.10;88.83;96636.52;2191033;81;21308;-81
2022/01/04 16:33:14;;;;;;;38.73;21.17;;;;;;;8.10;88.80;96634.78;2190799;81;20991;-80
2022/01/04 16:36:14;;;;;;;37.97;21.07;;;;;;;8.07;88.75;96620.97;2190702;81;20948;-81
2022/01/04 16:39:17;;;;;;;36.87;19.73;;;;;;;8.07;88.87;96619.23;2190383;81;20967;-80
2022/01/04 16:42:17;;;;;;;32.30;19.43;;;;;;;8.04;88.77;96608.87;2189647;81;21360;-80
2022/01/04 16:45:18;;;;;;;32.13;21.10;;;;;;;8.01;88.77;96605.02;2190242;81;20980;-79
2022/01/04 16:48:18;;;;;;;31.23;19.20;;;;;;;8.01;88.83;96603.73;2190273;81;21438;-82
2022/01/04 16:51:19;;;;;;;28.57;17.70;;;;;;;8.02;88.70;96605.44;2190670;81;21023;-81
2022/01/04 16:54:20;;;;;;;24.93;17.13;;;;;;;8.01;88.60;96606.77;2190719;81;21034;-81
2022/01/04 16:57:22;;;;;;;26.63;15.87;;;;;;;7.98;88.47;96601.17;2190507;81;20940;-81
2022/01/04 17:00:25;;;;;;;23.60;16.33;;;;;;;7.97;88.43;96604.20;2191446;81;20960;-81
2022/01/04 17:03:25;;;;;;;29.07;18.40;;;;;;;7.95;88.34;96598.61;2191585;81;21022;-80
2022/01/04 17:06:26;;;;;;;31.37;20.13;;;;;;;7.94;88.38;96598.20;2191313;81;20952;-79
2022/01/04 17:09:33;;;;;;;33.33;20.10;;;;;;;7.94;88.24;96589.96;2190329;81;20983;-82
2022/01/04 17:15:35;;;;;;;34.77;21.30;;;;;;;7.93;88.14;96588.69;2173052;81;20943;-77
2022/01/04 17:18:35;;;;;;;29.85;18.52;;;;;;;7.93;88.01;96588.69;2190102;81;20997;-82
2022/01/04 17:21:41;;;;;;;39.40;22.27;;;;;;;7.93;87.98;96580.45;2190941;81;20951;-82
2022/01/04 17:24:38;;;;;;;32.63;19.30;;;;;;;7.92;87.85;96575.28;2189547;80;21008;-81
2022/01/04 17:27:39;;;;;;;31.60;17.87;;;;;;;7.93;87.65;96571.80;2190833;81;20984;-82
2022/01/04 17:30:39;;;;;;;24.47;14.53;;;;;;;7.93;87.49;96565.30;2190192;81;20995;-82
2022/01/04 17:33:40;;;;;;;24.40;14.57;;;;;;;7.94;87.42;96565.72;2190581;81;20960;-81
2022/01/04 17:36:41;;;;;;;20.40;12.13;;;;;;;7.93;87.36;96559.67;2191042;81;20963;-82
2022/01/04 17:39:41;;;;;;;17.13;11.07;;;;;;;7.96;87.22;96554.87;2190949;81;21380;-82
2022/01/04 17:42:41;;;;;;;18.97;10.50;;;;;;;7.97;86.92;96554.84;2191174;81;20980;-82
2022/01/04 17:45:42;;;;;;;15.63;10.20;;;;;;;8.02;86.76;96559.98;2191362;81;20991;-80
2022/01/04 17:48:43;;;;;;;14.57;9.30;;;;;;;8.05;86.64;96552.14;2190682;81;21063;-82
2022/01/04 17:51:46;;;;;;;14.30;9.83;;;;;;;8.06;86.41;96560.34;2190729;81;20943;-83
2022/01/04 17:54:48;;;;;;;18.80;10.20;;;;;;;8.09;86.34;96559.00;2190753;81;21000;-81
2022/01/04 17:57:48;;;;;;;33.17;19.23;;;;;;;8.08;86.22;96546.89;2190503;81;21396;-81
2022/01/04 18:00:49;;;;;;;15.53;10.13;;;;;;;8.10;85.95;96553.38;2190548;81;20967;-80
2022/01/04 18:03:50;;;;;;;19.97;11.73;;;;;;;8.10;86.11;96552.92;2191281;81;20994;-80
2022/01/04 18:06:53;;;;;;;14.73;10.00;;;;;;;8.12;86.01;96550.30;2191178;81;20908;-81
2022/01/04 18:09:53;;;;;;;21.33;11.40;;;;;;;8.13;86.06;96553.32;2190728;81;21086;-82
2022/01/04 18:12:54;;;;;;;19.83;10.50;;;;;;;8.12;85.92;96555.06;2191128;81;20992;-84
2022/01/04 18:15:54;;;;;;;17.73;11.77;;;;;;;8.13;86.15;96559.81;2190178;81;20971;-83
2022/01/04 18:18:55;;;;;;;20.50;11.73;;;;;;;8.13;86.35;96551.58;2190775;81;20995;-82
2022/01/04 18:21:55;;;;;;;22.67;12.20;;;;;;;8.16;86.36;96538.54;2190385;81;21000;-83
2022/01/04 18:24:56;;;;;;;22.83;12.20;;;;;;;8.17;86.24;96536.36;2184152;81;21119;-80
2022/01/04 18:27:57;;;;;;;20.83;12.23;;;;;;;8.15;86.26;96518.64;2173268;82;21040;-82
2022/01/04 18:30:57;;;;;;;27.00;15.10;;;;;;;8.15;86.21;96517.78;2174164;82;20925;-82
2022/01/04 18:33:58;;;;;;;18.00;11.77;;;;;;;8.14;86.29;96505.67;2174126;81;21044;-83
2022/01/04 18:36:58;;;;;;;20.13;12.20;;;;;;;8.14;86.23;96505.23;2174301;82;20975;-83
2022/01/04 18:39:59;;;;;;;19.73;12.00;;;;;;;8.12;86.37;96504.39;2174260;81;20988;-83
2022/01/04 18:42:59;;;;;;;22.73;13.17;;;;;;;8.11;86.44;96497.48;2174234;82;20989;-81
2022/01/04 18:46:02;;;;;;;18.47;12.77;;;;;;;8.11;86.54;96493.58;2174364;81;20993;-83
2022/01/04 18:49:02;;;;;;;17.60;12.13;;;;;;;8.13;86.75;96490.96;2173575;82;21024;-84
2022/01/04 18:52:05;;;;;;;21.40;13.10;;;;;;;8.14;86.87;96506.53;2173269;82;20969;-83
2022/01/04 18:55:06;;;;;;;21.60;12.97;;;;;;;8.12;86.96;96500.49;2173444;82;20976;-83
2022/01/04 18:58:07;;;;;;;22.10;13.40;;;;;;;8.41;88.31;96502.65;2173320;82;20999;-83
2022/01/04 19:01:07;;;;;;;19.60;13.20;;;;;;;8.40;86.97;96498.78;2173736;82;21377;-84
2022/01/04 19:04:08;;;;;;;23.23;14.63;;;;;;;8.34;86.76;96493.68;2174526;81;21336;-83
2022/01/04 19:07:11;;;;;;;24.73;14.83;;;;;;;8.28;86.83;96482.91;2173737;81;20976;-83
2022/01/04 19:10:13;;;;;;;25.87;13.80;;;;;;;8.24;86.92;96487.75;2173853;81;20999;-84
2022/01/04 19:13:15;;;;;;;18.70;13.17;;;;;;;8.22;87.08;96492.97;2173837;82;20972;-82
2022/01/04 19:16:15;;;;;;;23.80;13.80;;;;;;;8.22;87.24;96499.47;2174178;81;20945;-83
2022/01/04 19:19:16;;;;;;;23.83;13.63;;;;;;;8.22;87.31;96493.41;2173718;82;20989;-84
2022/01/04 19:22:17;;;;;;;19.00;12.93;;;;;;;8.20;87.40;96497.33;2173606;81;21007;-83
2022/01/04 19:25:17;;;;;;;26.00;13.77;;;;;;;8.20;87.49;96492.13;2180278;81;20992;-81
2022/01/04 19:28:18;;;;;;;23.27;14.73;;;;;;;8.21;87.56;96495.15;2190417;81;20917;-83
2022/01/04 19:31:24;;;;;;;24.30;14.73;;;;;;;8.21;87.58;96495.15;2190136;81;21020;-81
2022/01/04 19:37:40;;;;;;;24.60;15.07;;;;;;;8.23;88.02;96499.88;2189748;81;20944;-83
2022/01/04 19:40:41;;;;;;;25.17;15.17;;;;;;;8.25;88.04;96491.62;2189592;81;21312;-81
2022/01/04 19:43:41;;;;;;;24.17;14.47;;;;;;;8.25;88.24;96486.42;2189727;81;20960;-83
2022/01/04 19:46:42;;;;;;;26.70;15.23;;;;;;;8.27;88.22;96485.95;2189985;81;20964;-84
2022/01/04 19:49:42;;;;;;;31.93;18.07;;;;;;;8.31;88.29;96494.12;2189637;81;20991;-83
2022/01/04 19:52:43;;;;;;;26.73;14.77;;;;;;;8.34;88.60;96491.08;2189824;81;20988;-83
2022/01/04 19:55:43;;;;;;;26.60;16.37;;;;;;;8.36;88.97;96486.72;2188742;81;21008;-82
2022/01/04 19:58:44;;;;;;;25.17;16.73;;;;;;;8.38;89.17;96484.50;2189196;81;20972;-83
2022/01/04 20:01:44;;;;;;;20.83;13.73;;;;;;;8.38;89.66;96471.51;2189434;81;20987;-82
2022/01/04 20:04:45;;;;;;;24.37;15.80;;;;;;;8.40;90.17;96472.78;2189126;81;20972;-83
2022/01/04 20:07:46;;;;;;;24.67;14.87;;;;;;;8.41;90.20;96482.30;2188296;81;21415;-83
2022/01/04 20:10:46;;;;;;;26.13;15.40;;;;;;;8.43;90.23;96476.19;2188779;81;21411;-81
2022/01/04 20:13:47;;;;;;;24.90;14.67;;;;;;;8.46;90.12;96481.77;2189370;81;20972;-83
2022/01/04 20:16:47;;;;;;;19.47;13.33;;;;;;;8.49;90.21;96478.67;2188919;81;21062;-83
2022/01/04 20:19:48;;;;;;;24.70;15.00;;;;;;;8.52;90.63;96479.06;2189306;81;21027;-83
2022/01/04 20:22:49;;;;;;;21.60;13.83;;;;;;;9.31;100.00;96464.54;2189776;81;20988;-82
2022/01/04 20:25:53;;;;;;;20.47;13.03;;;;;;;10.80;99.34;96461.48;2180513;80;21467;-84
2022/01/04 20:28:53;;;;;;;16.97;11.47;;;;;;;12.26;98.82;96468.11;2172683;82;20992;-85
2022/01/04 20:31:54;;;;;;;18.70;12.20;;;;;;;13.34;91.62;96461.31;2172872;81;20976;-83
2022/01/04 20:34:54;;;;;;;18.77;12.37;;;;;;;14.16;90.41;96461.23;2173392;81;20985;-84
2022/01/04 20:37:55;;;;;;;17.45;11.85;;;;;;;14.45;84.47;96453.52;2173701;82;20965;-81
2022/01/04 20:40:56;;;;;;;18.37;11.93;;;;;;;14.33;77.32;96464.48;2173134;82;21027;-83
2022/01/04 20:43:56;;;;;;;20.75;13.00;;;;;;;12.86;74.83;96465.63;2173055;81;21008;-83
2022/01/04 20:46:56;;;;;;;17.43;11.80;;;;;;;11.76;77.49;96476.57;2173157;82;20945;-83
2022/01/04 20:49:57;;;;;;;18.63;11.70;;;;;;;11.02;78.67;96478.27;2173366;81;20965;-84
2022/01/04 20:52:57;;;;;;;15.53;10.87;;;;;;;10.49;80.44;96491.42;2173322;81;21000;-83
2022/01/04 20:59:39;;;;;;;20.93;11.63;;;;;;;9.78;84.11;96503.91;2242046;78;23235;-83
2022/01/04 21:02:41;;;;;;;19.30;11.10;;;;;;;9.55;84.76;96512.67;2205802;80;20975;-83
2022/01/04 21:05:42;;;;;;;20.20;10.50;;;;;;;9.43;86.48;96521.56;2216617;80;21312;-83
2022/01/04 21:08:43;;;;;;;15.47;9.80;;;;;;;9.37;87.31;96524.30;2212320;80;21033;-81
2022/01/04 21:11:43;;;;;;;14.10;9.57;;;;;;;9.30;88.34;96537.47;2220395;80;21494;-82
2022/01/04 21:14:44;;;;;;;19.40;11.40;;;;;;;9.23;88.39;96549.30;2209110;80;20966;-82
2022/01/04 21:17:45;;;;;;;15.33;9.43;;;;;;;9.19;89.55;96554.59;2222461;80;21346;-81
2022/01/04 21:20:45;;;;;;;16.23;10.13;;;;;;;9.14;91.08;96557.73;2213091;80;21663;-82
2022/01/04 21:23:48;;;;;;;12.63;8.87;;;;;;;9.12;90.04;96573.81;2231814;80;21332;-81
2022/01/04 21:26:48;;;;;;;10.03;8.00;;;;;;;9.07;91.52;96596.02;2226469;80;21821;-82
2022/01/04 21:29:49;;;;;;;12.17;7.23;;;;;;;9.02;92.32;96585.28;2210774;80;21030;-81
2022/01/04 21:32:49;;;;;;;10.80;7.10;;;;;;;8.97;91.44;96591.87;2216908;80;21077;-81
2022/01/04 21:35:54;;;;;;;12.87;7.73;;;;;;;8.89;91.76;96593.75;2200234;80;20994;-82
2022/01/04 21:38:55;;;;;;;10.83;7.43;;;;;;;8.79;91.10;96602.15;2217567;80;21044;-83
2022/01/04 21:41:55;;;;;;;31.37;24.47;;;;;;;8.67;91.94;96620.56;2212224;80;20991;-83
2022/01/04 21:44:55;;;;;;;101.53;79.90;;;;;;;9.05;92.86;96625.12;2234197;80;21355;-82
2022/01/04 21:47:56;;;;;;;14.27;8.93;;;;;;;9.83;93.32;96621.91;2232538;80;20998;-81
2022/01/04 21:50:57;;;;;;;9.07;6.70;;;;;;;9.95;86.45;96635.58;2222473;80;21026;-82
2022/01/04 21:53:58;;;;;;;12.57;7.73;;;;;;;9.37;86.80;96644.50;2203064;80;20986;-81
2022/01/04 21:56:59;;;;;;;10.93;7.80;;;;;;;9.02;87.83;96647.73;2212667;80;21395;-81
2022/01/04 21:59:59;;;;;;;13.50;7.10;;;;;;;8.78;89.19;96648.56;2201300;80;21437;-81